Time;durP1;ratioP1;P1;durP2;ratioP2;P2;SDS_P1;SDS_P2;PMS_P1;PMS_P2;Temp;Humidity;BMP_temperature;BMP_pressure;BME280_temperature;BME280_humidity;BME280_pressure;Samples;Min_cycle;Max_cycle;Signal;HPM_P1;HPM_P2
2021/04/07 00:00:58;;;;;;;15.10;9.80;;;1.40;99.90;;;;;;6244296;23;20005;-71
2021/04/07 00:03:24;;;;;;;16.37;10.97;;;1.40;99.90;;;;;;6245848;22;20286;-71
2021/04/07 00:05:50;;;;;;;18.10;11.57;;;1.40;99.90;;;;;;6245881;23;20007;-71
2021/04/07 00:08:21;;;;;;;16.63;11.10;;;1.40;99.90;;;;;;6245921;23;20003;-70
2021/04/07 00:10:47;;;;;;;22.35;13.32;;;1.40;99.90;;;;;;6245908;23;20000;-70
2021/04/07 00:13:14;;;;;;;23.20;13.77;;;1.40;99.90;;;;;;6245816;23;20512;-70
2021/04/07 00:15:41;;;;;;;25.83;15.10;;;1.40;99.90;;;;;;6244177;23;20087;-68
2021/04/07 00:18:07;;;;;;;27.27;15.60;;;1.40;99.90;;;;;;6245798;23;20353;-70
2021/04/07 00:20:34;;;;;;;26.57;16.57;;;1.30;99.90;;;;;;6245739;23;20076;-68
2021/04/07 00:23:01;;;;;;;29.30;18.23;;;1.40;99.90;;;;;;6245384;23;20001;-68
2021/04/07 00:25:27;;;;;;;27.67;17.87;;;1.30;99.90;;;;;;6245861;23;19992;-70
2021/04/07 00:27:56;;;;;;;26.37;16.90;;;1.30;99.90;;;;;;6245759;23;20004;-70
2021/04/07 00:30:27;;;;;;;27.37;17.13;;;1.30;99.90;;;;;;6244171;23;20000;-70
2021/04/07 00:32:54;;;;;;;28.25;16.35;;;1.30;99.90;;;;;;6244124;23;20333;-68
2021/04/07 00:35:21;;;;;;;27.57;15.93;;;1.30;99.90;;;;;;6245741;23;20003;-67
2021/04/07 00:37:47;;;;;;;22.57;14.37;;;1.30;99.90;;;;;;6245729;23;20027;-67
2021/04/07 00:40:14;;;;;;;21.87;14.10;;;1.30;99.90;;;;;;6245783;23;20000;-67
2021/04/07 00:42:42;;;;;;;22.53;14.57;;;1.30;99.90;;;;;;6245602;23;20000;-68
2021/04/07 00:45:10;;;;;;;20.97;12.30;;;1.20;99.90;;;;;;6245344;23;20000;-67
2021/04/07 00:47:36;;;;;;;19.53;12.40;;;1.20;99.90;;;;;;6243968;23;20001;-67
2021/04/07 00:50:04;;;;;;;16.73;11.90;;;1.20;99.90;;;;;;6245742;23;20000;-66
2021/04/07 00:52:29;;;;;;;21.03;13.03;;;1.20;99.90;;;;;;6245271;23;20299;-67
2021/04/07 00:54:56;;;;;;;19.20;12.47;;;1.20;99.90;;;;;;6245626;23;19998;-67
2021/04/07 00:57:24;;;;;;;17.47;11.30;;;1.20;99.90;;;;;;6243927;23;20027;-68
2021/04/07 00:59:51;;;;;;;21.20;12.50;;;1.20;99.90;;;;;;6244144;23;20011;-67
2021/04/07 01:02:19;;;;;;;15.10;10.50;;;1.20;99.90;;;;;;6245557;23;20421;-68
2021/04/07 01:04:46;;;;;;;15.93;11.60;;;1.20;99.90;;;;;;6245596;23;20027;-68
2021/04/07 01:07:12;;;;;;;18.80;12.23;;;1.30;99.90;;;;;;6243982;23;20024;-70
2021/04/07 01:09:39;;;;;;;14.90;10.20;;;1.20;99.90;;;;;;6245696;23;20004;-70
2021/04/07 01:12:07;;;;;;;18.60;11.90;;;1.20;99.90;;;;;;6246664;23;20019;-69
2021/04/07 01:14:34;;;;;;;16.97;10.70;;;1.20;99.90;;;;;;6245743;23;20005;-69
2021/04/07 01:17:01;;;;;;;14.70;9.63;;;1.20;99.90;;;;;;6245689;23;20310;-69
2021/04/07 01:19:27;;;;;;;13.33;9.43;;;1.20;99.90;;;;;;6247509;22;20000;-68
2021/04/07 01:21:54;;;;;;;13.30;9.47;;;1.20;99.90;;;;;;6246995;22;20417;-69
2021/04/07 01:24:22;;;;;;;15.13;8.73;;;1.30;99.90;;;;;;6246602;22;20449;-69
2021/04/07 01:26:49;;;;;;;13.73;9.03;;;1.30;99.90;;;;;;6245681;23;20000;-70
2021/04/07 01:29:15;;;;;;;14.97;8.53;;;1.30;99.90;;;;;;6247273;22;20110;-68
2021/04/07 01:31:56;;;;;;;14.77;8.37;;;1.30;99.90;;;;;;6247622;23;20455;-69
2021/04/07 01:34:27;;;;;;;12.43;8.47;;;1.20;99.90;;;;;;6245603;23;20042;-68
2021/04/07 01:36:54;;;;;;;;;;;1.20;99.90;;;;;;6247805;22;20413;-68
2021/04/07 01:39:22;;;;;;;13.50;8.37;;;1.20;99.90;;;;;;6245618;23;20206;-69
2021/04/07 01:41:49;;;;;;;16.30;9.30;;;1.20;99.90;;;;;;6245496;23;20430;-68
2021/04/07 01:44:18;;;;;;;16.23;10.10;;;1.20;99.90;;;;;;6245386;23;20487;-69
2021/04/07 01:46:45;;;;;;;16.43;9.13;;;1.20;99.90;;;;;;6245382;23;20095;-69
2021/04/07 01:49:12;;;;;;;13.47;9.17;;;1.20;99.90;;;;;;6245468;23;20440;-68
2021/04/07 01:51:38;;;;;;;15.27;9.73;;;1.20;99.90;;;;;;6245444;23;19996;-69
2021/04/07 01:54:06;;;;;;;19.03;11.27;;;1.20;99.90;;;;;;6247115;22;20032;-69
2021/04/07 01:56:44;;;;;;;16.63;11.13;;;1.20;99.90;;;;;;6246985;23;20007;-69
2021/04/07 01:59:09;;;;;;;18.73;11.73;;;1.20;99.90;;;;;;6247083;23;20050;-69
2021/04/07 02:01:36;;;;;;;19.93;10.77;;;1.20;99.90;;;;;;6246994;23;20484;-69
2021/04/07 02:04:03;;;;;;;19.73;11.33;;;1.20;99.90;;;;;;6246886;23;20313;-68
2021/04/07 02:06:29;;;;;;;17.03;11.30;;;1.20;99.90;;;;;;6246933;23;20015;-67
2021/04/07 02:08:55;;;;;;;18.80;12.17;;;1.20;99.90;;;;;;6246880;23;20402;-68
2021/04/07 02:11:21;;;;;;;17.90;11.23;;;1.20;99.90;;;;;;6246549;23;20439;-68
2021/04/07 02:13:49;;;;;;;16.60;10.43;;;1.20;99.90;;;;;;6246893;23;20066;-68
2021/04/07 02:16:16;;;;;;;14.20;10.17;;;1.20;99.90;;;;;;6246509;23;19996;-68
2021/04/07 02:18:43;;;;;;;15.50;10.60;;;1.10;99.90;;;;;;6246777;23;19992;-68
2021/04/07 02:21:10;;;;;;;16.37;9.87;;;1.20;99.90;;;;;;6245269;23;20014;-68
2021/04/07 02:23:37;;;;;;;17.00;9.83;;;1.10;99.90;;;;;;6245791;22;20043;-68
2021/04/07 02:26:04;;;;;;;15.87;10.10;;;1.10;99.90;;;;;;6245169;23;20005;-68
2021/04/07 02:28:30;;;;;;;17.77;10.03;;;1.10;99.90;;;;;;6245018;23;20004;-68
2021/04/07 02:30:56;;;;;;;15.90;9.70;;;1.00;99.90;;;;;;6246732;23;19992;-67
2021/04/07 02:33:22;;;;;;;15.37;10.17;;;1.00;99.90;;;;;;6246700;22;20000;-68
2021/04/07 02:35:48;;;;;;;13.90;9.67;;;1.00;99.90;;;;;;6246646;23;20306;-68
2021/04/07 02:38:15;;;;;;;14.47;9.40;;;0.90;99.90;;;;;;6246624;22;19993;-69
2021/04/07 02:40:40;;;;;;;15.73;10.03;;;0.90;99.90;;;;;;6245036;23;20107;-67
2021/04/07 02:43:06;;;;;;;12.40;8.43;;;0.90;99.90;;;;;;6244860;23;20043;-68
2021/04/07 02:45:33;;;;;;;13.57;9.20;;;0.90;99.90;;;;;;6246555;22;20000;-68
2021/04/07 02:47:59;;;;;;;16.83;9.43;;;0.90;99.90;;;;;;6244879;23;20015;-69
2021/04/07 02:50:25;;;;;;;14.47;9.00;;;0.90;99.90;;;;;;6244865;23;20000;-67
2021/04/07 02:52:51;;;;;;;15.23;9.67;;;0.80;99.90;;;;;;6246479;22;20008;-66
2021/04/07 02:55:17;;;;;;;20.57;9.97;;;0.80;99.90;;;;;;6246554;22;20011;-67
2021/04/07 02:57:44;;;;;;;17.73;9.83;;;0.80;99.90;;;;;;6244456;23;20008;-67
2021/04/07 03:00:10;;;;;;;15.87;10.10;;;0.80;99.90;;;;;;6246531;22;20046;-67
2021/04/07 03:02:36;;;;;;;14.57;9.40;;;0.70;99.90;;;;;;6244653;23;20479;-67
2021/04/07 03:05:02;;;;;;;16.43;10.33;;;0.70;99.90;;;;;;6246381;22;19997;-67
2021/04/07 03:07:28;;;;;;;13.43;9.50;;;0.70;99.90;;;;;;6246222;23;20330;-67
2021/04/07 03:09:54;;;;;;;15.40;9.17;;;0.70;99.90;;;;;;6244747;23;19996;-67
2021/04/07 03:12:20;;;;;;;18.70;9.37;;;0.70;99.90;;;;;;6244645;23;20000;-67
2021/04/07 03:14:45;;;;;;;15.03;9.80;;;0.60;99.90;;;;;;6244620;23;20004;-67
2021/04/07 03:17:11;;;;;;;16.13;9.90;;;0.60;99.90;;;;;;6245931;22;20004;-68
2021/04/07 03:19:37;;;;;;;14.10;9.60;;;0.60;99.90;;;;;;6244617;23;20489;-67
2021/04/07 03:22:04;;;;;;;16.90;10.63;;;0.50;99.90;;;;;;6246021;22;20028;-68
2021/04/07 03:24:30;;;;;;;17.47;10.53;;;0.50;99.90;;;;;;6246046;23;20432;-68
2021/04/07 03:26:56;;;;;;;15.87;9.80;;;0.50;99.90;;;;;;6244432;23;20031;-68
2021/04/07 03:29:22;;;;;;;18.07;10.57;;;0.50;99.90;;;;;;6246171;22;20000;-66
2021/04/07 03:31:48;;;;;;;17.40;10.90;;;0.40;99.90;;;;;;6244478;23;20000;-68
2021/04/07 03:34:14;;;;;;;16.37;10.40;;;0.50;99.90;;;;;;6245951;23;20008;-68
2021/04/07 03:36:40;;;;;;;17.80;10.87;;;0.50;99.90;;;;;;6246073;23;19996;-68
2021/04/07 03:39:06;;;;;;;16.80;10.67;;;0.50;99.90;;;;;;6243295;23;20466;-68
2021/04/07 03:41:31;;;;;;;18.57;11.30;;;0.60;99.90;;;;;;6246077;23;20007;-67
2021/04/07 03:43:57;;;;;;;21.30;12.07;;;0.60;99.90;;;;;;6244249;23;20032;-66
2021/04/07 03:46:23;;;;;;;20.97;12.33;;;0.60;99.90;;;;;;6244276;23;20000;-66
2021/04/07 03:48:49;;;;;;;18.90;12.10;;;0.60;99.90;;;;;;6245804;23;20011;-67
2021/04/07 03:51:15;;;;;;;24.63;13.73;;;0.60;99.90;;;;;;6244405;23;20046;-70
2021/04/07 03:53:42;;;;;;;19.47;12.77;;;0.70;99.90;;;;;;6246005;23;20054;-69
2021/04/07 03:56:08;;;;;;;20.77;13.23;;;0.70;99.90;;;;;;6244303;23;20000;-69
2021/04/07 03:58:34;;;;;;;19.17;11.83;;;0.70;99.90;;;;;;6245907;23;20046;-69
2021/04/07 04:01:00;;;;;;;20.20;12.27;;;0.70;99.90;;;;;;6244331;23;20004;-69
2021/04/07 04:03:26;;;;;;;18.43;10.40;;;0.70;99.90;;;;;;6245824;23;20004;-70
2021/04/07 04:05:52;;;;;;;21.90;11.73;;;0.70;99.90;;;;;;6245292;23;20004;-69
2021/04/07 04:08:18;;;;;;;22.10;11.83;;;0.70;99.90;;;;;;6244129;23;20084;-69
2021/04/07 04:10:44;;;;;;;23.87;12.90;;;0.70;99.90;;;;;;6245946;23;20050;-68
2021/04/07 04:13:10;;;;;;;29.67;13.70;;;0.70;99.90;;;;;;6245887;23;20004;-67
2021/04/07 04:15:36;;;;;;;25.10;13.13;;;0.70;99.90;;;;;;6244200;23;20074;-68
2021/04/07 04:18:06;;;;;;;29.23;13.60;;;0.70;99.90;;;;;;6245899;23;20039;-68
2021/04/07 04:20:32;;;;;;;24.30;13.73;;;0.70;99.90;;;;;;6244291;23;20007;-68
2021/04/07 04:22:58;;;;;;;25.70;15.43;;;0.70;99.90;;;;;;6245471;23;20004;-68
2021/04/07 04:25:24;;;;;;;28.30;16.37;;;0.70;99.90;;;;;;6244195;23;20425;-68
2021/04/07 04:27:50;;;;;;;25.63;15.60;;;0.70;99.90;;;;;;6245852;23;20001;-69
2021/04/07 04:30:18;;;;;;;21.63;13.93;;;0.80;99.90;;;;;;6245204;23;19992;-69
2021/04/07 04:32:44;;;;;;;28.23;15.47;;;0.80;99.90;;;;;;6245748;23;20433;-70
2021/04/07 04:35:11;;;;;;;36.53;20.43;;;0.80;99.90;;;;;;6244126;23;20011;-68
2021/04/07 04:37:38;;;;;;;49.83;24.60;;;0.80;99.90;;;;;;6244052;23;20000;-67
2021/04/07 04:40:05;;;;;;;50.47;23.17;;;0.80;99.90;;;;;;6245670;23;20004;-67
2021/04/07 04:42:31;;;;;;;31.33;18.07;;;0.80;99.90;;;;;;6245252;23;20000;-67
2021/04/07 04:44:57;;;;;;;28.03;15.57;;;0.90;99.90;;;;;;6245725;23;20380;-69
2021/04/07 04:47:23;;;;;;;22.17;13.60;;;0.90;99.90;;;;;;6246738;23;20001;-68
2021/04/07 04:49:52;;;;;;;26.40;15.10;;;0.90;99.90;;;;;;6247579;23;20034;-67
2021/04/07 04:52:19;;;;;;;27.67;14.80;;;0.90;99.90;;;;;;6247696;23;20003;-67
2021/04/07 04:54:46;;;;;;;21.47;12.20;;;1.00;99.90;;;;;;6247629;23;20053;-70
2021/04/07 04:57:12;;;;;;;20.40;12.70;;;1.00;99.90;;;;;;6247608;23;20054;-70
2021/04/07 04:59:38;;;;;;;22.57;14.10;;;1.00;99.90;;;;;;6247547;23;19996;-68
2021/04/07 05:02:04;;;;;;;31.67;19.10;;;1.00;99.90;;;;;;6247499;23;20002;-67
2021/04/07 05:04:29;;;;;;;23.40;14.57;;;1.00;99.90;;;;;;6245800;23;20042;-68
2021/04/07 05:06:55;;;;;;;31.17;18.07;;;1.10;99.90;;;;;;6245806;23;20034;-69
2021/04/07 05:09:21;;;;;;;34.37;19.40;;;1.10;99.90;;;;;;6245824;23;20004;-68
2021/04/07 05:11:47;;;;;;;40.00;20.73;;;1.20;99.90;;;;;;6245870;23;20000;-68
2021/04/07 05:14:13;;;;;;;41.37;19.10;;;1.20;99.90;;;;;;6247058;23;20114;-67
2021/04/07 05:16:39;;;;;;;28.80;16.20;;;1.30;99.90;;;;;;6247374;23;20317;-69
2021/04/07 05:19:05;;;;;;;32.07;16.63;;;1.20;99.90;;;;;;6247414;23;19992;-69
2021/04/07 05:21:31;;;;;;;29.53;16.03;;;1.30;99.90;;;;;;6245661;23;20062;-69
2021/04/07 05:23:57;;;;;;;28.43;16.03;;;1.20;99.90;;;;;;6246820;23;20425;-70
2021/04/07 05:26:23;;;;;;;24.97;14.33;;;1.20;99.90;;;;;;6247268;23;20084;-65
2021/04/07 05:28:49;;;;;;;24.43;14.17;;;1.30;99.90;;;;;;6247206;23;20046;-69
2021/04/07 05:31:16;;;;;;;23.10;13.83;;;1.30;99.90;;;;;;6247292;23;20074;-68
2021/04/07 05:33:43;;;;;;;29.13;13.53;;;1.30;99.90;;;;;;6247241;23;20007;-69
2021/04/07 05:36:12;;;;;;;20.63;12.27;;;1.30;99.90;;;;;;6247248;23;20072;-70
2021/04/07 05:38:38;;;;;;;20.10;12.10;;;1.40;99.90;;;;;;6245541;23;20000;-69
2021/04/07 05:41:06;;;;;;;22.77;13.30;;;1.40;99.90;;;;;;6247073;23;20024;-70
2021/04/07 05:43:33;;;;;;;21.23;12.80;;;1.50;99.90;;;;;;6245389;23;20004;-70
2021/04/07 05:45:59;;;;;;;22.23;12.57;;;1.50;99.90;;;;;;6246710;23;20039;-71
2021/04/07 05:48:25;;;;;;;20.50;13.17;;;1.60;99.90;;;;;;6246967;23;20349;-69
2021/04/07 05:50:53;;;;;;;28.07;15.90;;;1.70;99.90;;;;;;6246018;23;20007;-69
2021/04/07 05:53:19;;;;;;;22.57;13.27;;;1.70;99.90;;;;;;6245273;23;20008;-72
2021/04/07 05:55:47;;;;;;;23.20;13.30;;;1.80;99.90;;;;;;6246890;23;19996;-70
2021/04/07 05:58:14;;;;;;;30.53;17.67;;;1.80;99.90;;;;;;6246734;23;19993;-71
2021/04/07 06:00:41;;;;;;;24.40;15.33;;;1.90;99.90;;;;;;6246470;23;20071;-68
2021/04/07 06:03:08;;;;;;;27.90;16.23;;;1.90;99.90;;;;;;6246777;23;20039;-69
2021/04/07 06:05:38;;;;;;;25.03;14.17;;;2.00;99.90;;;;;;6246840;23;20004;-68
2021/04/07 06:08:05;;;;;;;21.43;14.77;;;2.00;99.90;;;;;;6246789;23;20087;-69
2021/04/07 06:10:32;;;;;;;22.60;13.73;;;2.00;99.90;;;;;;6247472;23;20000;-70
2021/04/07 06:13:01;;;;;;;22.33;14.27;;;2.10;99.90;;;;;;6246124;23;20000;-70
2021/04/07 06:15:28;;;;;;;28.87;15.40;;;2.00;99.90;;;;;;6247987;23;20005;-69
2021/04/07 06:18:02;;;;;;;25.70;15.33;;;2.00;99.90;;;;;;6247622;23;20075;-70
2021/04/07 06:20:30;;;;;;;26.87;15.00;;;2.10;99.90;;;;;;6246094;23;20043;-69
2021/04/07 06:22:57;;;;;;;23.60;15.13;;;2.10;99.90;;;;;;6247262;23;20413;-70
2021/04/07 06:25:24;;;;;;;31.87;20.77;;;2.10;99.90;;;;;;6245578;23;20015;-70
2021/04/07 06:27:56;;;;;;;25.63;15.03;;;2.20;99.90;;;;;;6246918;23;19996;-69
2021/04/07 06:30:44;;;;;;;26.42;15.13;;;2.20;99.90;;;;;;6247928;23;20007;-69
2021/04/07 06:33:10;;;;;;;37.53;22.93;;;2.30;99.90;;;;;;6246496;23;20330;-70
2021/04/07 06:35:36;;;;;;;43.50;22.77;;;2.30;99.90;;;;;;6247166;23;20307;-69
2021/04/07 06:38:02;;;;;;;33.23;19.87;;;2.40;99.90;;;;;;6247378;23;19992;-68
2021/04/07 06:40:30;;;;;;;36.40;19.90;;;2.40;99.90;;;;;;6247387;23;20035;-70
2021/04/07 06:42:59;;;;;;;24.97;14.37;;;2.50;99.90;;;;;;6247335;23;20095;-70
2021/04/07 06:45:26;;;;;;;19.77;11.73;;;2.50;99.90;;;;;;6245575;23;20318;-69
2021/04/07 06:47:53;;;;;;;18.87;11.27;;;2.50;99.90;;;;;;6245763;23;20004;-70
2021/04/07 06:50:21;;;;;;;19.07;11.20;;;2.50;99.90;;;;;;6247214;23;20007;-70
2021/04/07 06:52:48;;;;;;;21.67;12.17;;;2.60;99.90;;;;;;6247444;23;20028;-70
2021/04/07 06:55:18;;;;;;;20.17;13.50;;;2.80;99.90;;;;;;6245078;23;20008;-69
2021/04/07 06:57:45;;;;;;;19.23;11.17;;;2.80;99.90;;;;;;6244311;23;20035;-69
2021/04/07 07:00:12;;;;;;;24.63;14.60;;;2.80;99.90;;;;;;6247161;23;20010;-69
2021/04/07 07:02:39;;;;;;;20.17;12.07;;;2.90;99.90;;;;;;6247015;23;20003;-70
2021/04/07 07:05:06;;;;;;;18.00;10.47;;;3.00;99.90;;;;;;6247103;23;20000;-69
2021/04/07 07:07:32;;;;;;;21.87;12.50;;;3.00;99.90;;;;;;6247347;23;19992;-72
2021/04/07 07:09:58;;;;;;;20.33;11.30;;;3.00;99.90;;;;;;6246465;23;20110;-68
2021/04/07 07:12:25;;;;;;;31.27;17.57;;;3.20;99.90;;;;;;6247049;23;20078;-69
2021/04/07 07:14:51;;;;;;;20.83;13.63;;;3.30;99.90;;;;;;6245187;23;20099;-68
2021/04/07 07:17:28;;;;;;;21.27;12.50;;;3.40;99.90;;;;;;6245422;23;20007;-69
2021/04/07 07:19:54;;;;;;;24.97;13.57;;;3.40;99.90;;;;;;6246895;23;20002;-68
2021/04/07 07:22:25;;;;;;;19.37;11.10;;;3.50;99.90;;;;;;6245448;23;20046;-71
2021/04/07 07:24:53;;;;;;;18.85;11.65;;;3.40;99.90;;;;;;6244769;23;20055;-68
2021/04/07 07:27:19;;;;;;;23.50;13.17;;;3.40;99.90;;;;;;6247033;23;20483;-69
2021/04/07 07:29:55;;;;;;;21.13;12.37;;;3.40;99.90;;;;;;6246967;23;20076;-67
2021/04/07 07:32:31;;;;;;;23.73;13.63;;;3.50;99.90;;;;;;6247008;22;20432;-69
2021/04/07 07:35:09;;;;;;;18.27;11.03;;;3.60;99.90;;;;;;6245386;23;20099;-68
2021/04/07 07:37:36;;;;;;;15.67;10.73;;;3.80;99.90;;;;;;6246841;23;20497;-69
2021/04/07 07:40:05;;;;;;;15.47;9.97;;;3.70;99.90;;;;;;6246896;23;20067;-69
2021/04/07 07:42:31;;;;;;;25.37;14.50;;;3.80;99.90;;;;;;6245391;23;20079;-70
2021/04/07 07:44:57;;;;;;;19.60;11.37;;;3.90;99.90;;;;;;6246718;23;20015;-69
2021/04/07 07:47:29;;;;;;;14.40;10.40;;;4.00;99.90;;;;;;6247007;22;20000;-69
2021/04/07 07:50:01;;;;;;;13.40;8.80;;;4.10;99.90;;;;;;6245232;23;20007;-71
2021/04/07 07:52:35;;;;;;;15.00;9.47;;;4.10;99.90;;;;;;6247228;22;20000;-70
2021/04/07 07:55:18;;;;;;;30.80;18.63;;;4.10;99.90;;;;;;6246871;22;20027;-71
2021/04/07 07:57:57;;;;;;;19.53;12.23;;;4.40;99.90;;;;;;6246802;23;20352;-71
2021/04/07 08:00:24;;;;;;;18.07;9.93;;;4.50;99.70;;;;;;6246716;23;20000;-73
2021/04/07 08:02:51;;;;;;;18.83;10.33;;;4.60;99.40;;;;;;6246005;22;20004;-72
2021/04/07 08:05:20;;;;;;;12.70;8.13;;;4.50;99.40;;;;;;6246563;23;20007;-72
2021/04/07 08:07:46;;;;;;;14.60;9.30;;;4.40;98.90;;;;;;6245011;23;20011;-69
2021/04/07 08:10:14;;;;;;;16.90;9.80;;;4.40;99.10;;;;;;6246637;22;20309;-73
2021/04/07 08:12:42;;;;;;;12.23;8.20;;;4.50;99.40;;;;;;6246864;22;20433;-70
2021/04/07 08:15:09;;;;;;;17.13;9.43;;;4.70;99.10;;;;;;6245016;23;20004;-71
2021/04/07 08:17:36;;;;;;;13.23;8.73;;;4.80;99.00;;;;;;6246663;22;19996;-72
2021/04/07 08:20:04;;;;;;;13.83;8.40;;;4.80;97.40;;;;;;6245056;23;20000;-72
2021/04/07 08:22:34;;;;;;;12.27;7.77;;;4.90;97.60;;;;;;6246585;23;20003;-70
2021/04/07 08:25:03;;;;;;;13.53;8.50;;;4.90;98.00;;;;;;6246457;23;20078;-70
2021/04/07 08:27:29;;;;;;;12.03;8.67;;;5.10;99.20;;;;;;6248700;22;20004;-70
2021/04/07 08:29:56;;;;;;;12.77;8.18;;;5.20;98.20;;;;;;6248584;22;20006;-71
2021/04/07 08:32:22;;;;;;;10.40;7.80;;;5.00;96.20;;;;;;6247243;23;20031;-69
2021/04/07 08:34:49;;;;;;;11.93;7.23;;;4.80;96.40;;;;;;6247257;23;20084;-70
2021/04/07 08:37:35;;;;;;;12.57;8.23;;;4.70;96.90;;;;;;6248611;22;19996;-69
2021/04/07 08:40:13;;;;;;;19.47;11.50;;;4.90;97.00;;;;;;6248419;22;20007;-70
2021/04/07 08:42:40;;;;;;;15.30;10.70;;;5.10;99.90;;;;;;6248521;23;20066;-68
2021/04/07 08:45:09;;;;;;;13.05;8.35;;;5.40;99.90;;;;;;6248453;23;20023;-70
2021/04/07 08:47:43;;;;;;;21.80;9.83;;;5.20;95.90;;;;;;6246834;23;20032;-70
2021/04/07 08:50:12;;;;;;;11.80;7.90;;;5.50;99.90;;;;;;6248523;22;20054;-70
2021/04/07 08:52:46;;;;;;;11.70;7.53;;;5.90;94.10;;;;;;6248514;22;20004;-69
2021/04/07 08:55:40;;;;;;;10.82;8.07;;;5.90;93.80;;;;;;6248474;22;20071;-69
2021/04/07 08:58:07;;;;;;;14.52;9.63;;;5.90;94.50;;;;;;6245245;23;20003;-70
2021/04/07 09:00:36;;;;;;;13.73;7.88;;;6.40;95.90;;;;;;6246781;23;20321;-69
2021/04/07 09:03:11;;;;;;;14.50;8.95;;;6.30;93.30;;;;;;6248679;22;20126;-70
2021/04/07 09:05:39;;;;;;;15.02;8.45;;;6.00;92.10;;;;;;6246690;23;20046;-70
2021/04/07 09:08:08;;;;;;;15.77;9.38;;;5.90;93.80;;;;;;6247848;22;20421;-69
2021/04/07 09:10:42;;;;;;;11.23;7.57;;;6.20;93.40;;;;;;6248601;22;20042;-70
2021/04/07 09:13:19;;;;;;;13.20;7.05;;;6.20;92.80;;;;;;6248285;22;20001;-68
2021/04/07 09:15:51;;;;;;;24.10;14.32;;;6.00;92.30;;;;;;6248325;22;20034;-71
2021/04/07 09:18:33;;;;;;;18.60;10.05;;;6.20;93.20;;;;;;6248199;23;20000;-70
2021/04/07 09:21:00;;;;;;;13.98;8.07;;;6.30;94.70;;;;;;6246884;23;20329;-69
2021/04/07 09:23:34;;;;;;;13.35;8.82;;;6.20;90.90;;;;;;6247855;22;20004;-69
2021/04/07 09:26:11;;;;;;;18.67;10.13;;;6.80;92.60;;;;;;6248213;22;20000;-70
2021/04/07 09:28:59;;;;;;;9.85;7.15;;;7.10;93.70;;;;;;6248424;23;20425;-70
2021/04/07 09:31:27;;;;;;;11.93;7.65;;;7.00;92.00;;;;;;6247381;22;20000;-72
2021/04/07 09:33:56;;;;;;;13.30;7.15;;;6.80;91.40;;;;;;6248167;22;20035;-71
2021/04/07 09:36:41;;;;;;;12.32;8.15;;;7.00;91.50;;;;;;6248068;22;19992;-69
2021/04/07 09:39:08;;;;;;;10.18;6.57;;;7.40;88.90;;;;;;6248045;22;20437;-69
2021/04/07 09:41:36;;;;;;;15.20;9.73;;;7.60;88.60;;;;;;6248033;22;20444;-73
2021/04/07 09:44:04;;;;;;;14.90;8.57;;;7.60;88.40;;;;;;6247970;22;20075;-73
2021/04/07 09:46:31;;;;;;;13.82;7.60;;;7.20;89.00;;;;;;6248276;23;20007;-71
2021/04/07 09:49:06;;;;;;;11.10;7.13;;;7.80;90.10;;;;;;6247886;22;20067;-72
2021/04/07 09:51:43;;;;;;;14.98;8.23;;;8.40;88.90;;;;;;6247999;22;20000;-71
2021/04/07 09:54:29;;;;;;;14.55;7.65;;;8.00;85.20;;;;;;6247856;22;20054;-71
2021/04/07 09:57:00;;;;;;;12.98;7.32;;;7.60;85.70;;;;;;6247842;22;19996;-72
2021/04/07 09:59:47;;;;;;;7.18;5.47;;;8.10;89.20;;;;;;6247972;22;20038;-70
2021/04/07 10:02:26;;;;;;;10.10;7.18;;;8.10;78.50;;;;;;6248078;22;20004;-71
2021/04/07 10:04:54;;;;;;;9.25;5.35;;;8.30;80.60;;;;;;6247671;22;20344;-71
2021/04/07 10:07:22;;;;;;;8.32;5.68;;;7.90;74.70;;;;;;6247627;22;20004;-71
2021/04/07 10:09:53;;;;;;;7.60;5.75;;;8.20;77.70;;;;;;6246087;23;20286;-72
2021/04/07 10:12:21;;;;;;;7.47;5.63;;;8.60;79.10;;;;;;6246455;23;20326;-70
2021/04/07 10:14:58;;;;;;;8.07;4.40;;;8.60;75.10;;;;;;6247530;22;20053;-71
2021/04/07 10:17:31;;;;;;;7.25;5.07;;;8.20;73.20;;;;;;6245782;23;20008;-72
2021/04/07 10:20:15;;;;;;;8.45;5.60;;;8.70;77.30;;;;;;6245672;23;20089;-69
2021/04/07 10:22:43;;;;;;;4.60;4.10;;;8.90;74.20;;;;;;6245589;23;20053;-71
2021/04/07 10:25:17;;;;;;;9.82;6.03;;;9.70;74.70;;;;;;6245405;23;20043;-70
2021/04/07 10:27:44;;;;;;;7.38;4.80;;;10.20;75.00;;;;;;6247272;22;20325;-71
2021/04/07 10:30:13;;;;;;;5.47;4.43;;;9.80;72.60;;;;;;6247540;22;20077;-73
2021/04/07 10:32:41;;;;;;;7.63;4.60;;;10.30;67.40;;;;;;6247257;22;20004;-71
2021/04/07 10:35:27;;;;;;;5.68;4.13;;;10.60;62.50;;;;;;6247081;22;20003;-72
2021/04/07 10:37:55;;;;;;;7.50;4.30;;;11.60;61.90;;;;;;6245633;23;20023;-71
2021/04/07 10:40:23;;;;;;;6.20;4.80;;;11.60;61.10;;;;;;6247149;22;20054;-70
2021/04/07 10:42:50;;;;;;;8.57;5.28;;;12.40;58.40;;;;;;6245551;23;20030;-72
2021/04/07 10:45:20;;;;;;;10.48;5.25;;;10.80;64.70;;;;;;6246768;22;19996;-68
2021/04/07 10:47:47;;;;;;;5.85;5.00;;;11.00;64.80;;;;;;6247323;22;20000;-71
2021/04/07 10:50:14;;;;;;;6.72;4.53;;;12.10;61.10;;;;;;6247206;22;19996;-69
2021/04/07 10:52:45;;;;;;;6.95;4.28;;;11.90;56.70;;;;;;6247481;22;20080;-69
2021/04/07 10:55:22;;;;;;;7.10;4.43;;;12.60;53.10;;;;;;6247424;22;20053;-69
2021/04/07 10:57:51;;;;;;;6.10;5.43;;;14.50;92.30;;;;;;6247427;22;20075;-69
2021/04/07 11:00:28;;;;;;;4.78;4.05;;;;;;;;;;6247222;22;20000;-69
2021/04/07 11:02:55;;;;;;;7.85;4.10;;;14.40;51.50;;;;;;6245509;23;20004;-70
2021/04/07 11:05:23;;;;;;;7.38;3.95;;;14.40;49.10;;;;;;6247339;22;20003;-69
2021/04/07 11:08:04;;;;;;;4.72;3.58;;;13.20;50.80;;;;;;6245453;23;20004;-71
2021/04/07 11:10:49;;;;;;;5.10;3.72;;;14.50;46.80;;;;;;6245447;23;20008;-68
2021/04/07 11:13:18;;;;;;;3.33;2.70;;;15.60;47.20;;;;;;6247311;22;20007;-69
2021/04/07 11:15:45;;;;;;;4.40;3.60;;;14.20;43.20;;;;;;6245457;23;19996;-69
2021/04/07 11:18:11;;;;;;;8.73;4.40;;;12.90;48.60;;;;;;6246598;22;19996;-69
2021/04/07 11:20:42;;;;;;;10.57;4.40;;;11.80;53.50;;;;;;6247078;22;19997;-69
2021/04/07 11:23:09;;;;;;;8.93;5.15;;;11.70;56.40;;;;;;6242546;22;20020;-69
2021/04/07 11:25:35;;;;;;;7.63;3.90;;;10.80;56.60;;;;;;6244175;23;20019;-69
2021/04/07 11:28:01;;;;;;;10.25;3.67;;;10.30;56.60;;;;;;6245206;23;20004;-74
2021/04/07 11:30:29;;;;;;;8.32;4.60;;;9.90;55.80;;;;;;6246962;22;20000;-71
2021/04/07 11:32:58;;;;;;;6.85;4.75;;;9.80;56.40;;;;;;6243990;23;20429;-72
2021/04/07 11:35:40;;;;;;;6.75;4.35;;;9.30;62.10;;;;;;6244764;23;19997;-73
2021/04/07 11:38:07;;;;;;;6.32;4.85;;;10.20;58.50;;;;;;6244718;23;20000;-72
2021/04/07 11:45:29;;;;;;;5.10;4.03;;;9.60;59.00;;;;;;6246317;22;20000;-72
2021/04/07 11:47:55;;;;;;;11.10;3.28;;;12.10;54.70;;;;;;6246590;22;20321;-71
2021/04/07 11:50:21;;;;;;;15.13;9.57;;;14.40;46.70;;;;;;6246657;22;19997;-71
2021/04/07 11:52:47;;;;;;;4.97;3.47;;;15.50;47.50;;;;;;6246488;22;19993;-71
2021/04/07 11:55:13;;;;;;;5.00;3.88;;;15.00;45.40;;;;;;6246548;22;20067;-70
2021/04/07 11:57:39;;;;;;;5.90;4.40;;;13.80;47.10;;;;;;6245945;22;20079;-70
2021/04/07 12:00:08;;;;;;;5.35;3.28;;;12.70;50.30;;;;;;6244977;23;20322;-69
2021/04/07 12:02:35;;;;;;;7.65;3.05;;;11.40;49.50;;;;;;6246573;22;20000;-70
2021/04/07 12:05:02;;;;;;;7.15;4.20;;;10.80;53.20;;;;;;6246617;22;20012;-71
2021/04/07 12:07:27;;;;;;;6.72;3.78;;;10.10;54.40;;;;;;6244950;23;20022;-69
2021/04/07 12:09:53;;;;;;;9.82;4.70;;;9.90;55.30;;;;;;6246439;22;19996;-68
2021/04/07 12:12:19;;;;;;;8.02;4.57;;;9.80;55.70;;;;;;6244491;23;20429;-69
2021/04/07 12:14:45;;;;;;;11.18;6.13;;;9.30;58.10;;;;;;6246336;22;20054;-71
2021/04/07 12:17:11;;;;;;;11.27;5.38;;;9.20;61.50;;;;;;6246154;22;20071;-71
2021/04/07 12:19:37;;;;;;;15.38;10.38;;;9.40;58.30;;;;;;6246218;22;20350;-69
2021/04/07 12:22:02;;;;;;;5.25;3.22;;;11.80;58.00;;;;;;6244834;23;20034;-72
2021/04/07 12:24:29;;;;;;;8.57;4.05;;;15.60;42.20;;;;;;6245872;22;20020;-72
2021/04/07 12:26:56;;;;;;;10.40;5.45;;;16.00;42.10;;;;;;6246422;22;20369;-70
2021/04/07 12:29:23;;;;;;;6.57;4.50;;;;;;;;;;6244946;23;20010;-72
2021/04/07 12:31:49;;;;;;;5.55;3.40;;;;;;;;;;6244708;23;20031;-69
2021/04/07 12:34:15;;;;;;;7.03;3.67;;;16.60;36.00;;;;;;6246698;23;20070;-71
2021/04/07 12:36:41;;;;;;;8.50;4.85;;;16.50;37.60;;;;;;6246217;22;20357;-70
2021/04/07 12:39:07;;;;;;;6.45;4.15;;;15.20;42.90;;;;;;6246425;22;20448;-71
2021/04/07 12:41:47;;;;;;;5.90;3.55;;;16.10;40.50;;;;;;6246313;22;20000;-70
2021/04/07 12:44:13;;;;;;;6.22;3.50;;;;;;;;;;6244733;23;20000;-73
2021/04/07 12:46:39;;;;;;;10.57;5.90;;;18.50;35.40;;;;;;6244805;23;20042;-70
2021/04/07 12:49:05;;;;;;;5.75;3.63;;;18.40;35.80;;;;;;6246486;22;20024;-72
2021/04/07 12:51:31;;;;;;;5.13;3.22;;;15.30;38.20;;;;;;6244762;23;20024;-70
2021/04/07 12:53:57;;;;;;;9.43;5.18;;;14.30;41.70;;;;;;6246284;22;20004;-72